sensor_id;sensor_type;location;lat;lon;timestamp;P1;durP1;ratioP1;P2;durP2;ratioP2
9940;SDS011;5009;50.656;7.188;2023-07-31T04:01:58;4.18;;;3.65;;
9940;SDS011;5009;50.656;7.188;2023-07-31T04:04:24;4.25;;;3.85;;
9940;SDS011;5009;50.656;7.188;2023-07-31T04:06:49;4.68;;;3.80;;
9940;SDS011;5009;50.656;7.188;2023-07-31T04:09:15;8.38;;;3.90;;
9940;SDS011;5009;50.656;7.188;2023-07-31T04:11:40;5.93;;;4.35;;
9940;SDS011;5009;50.656;7.188;2023-07-31T04:14:06;4.88;;;3.88;;
9940;SDS011;5009;50.656;7.188;2023-07-31T04:16:31;5.43;;;3.83;;
9940;SDS011;5009;50.656;7.188;2023-07-31T04:18:57;5.82;;;3.80;;
9940;SDS011;5009;50.656;7.188;2023-07-31T04:21:22;4.22;;;3.45;;
9940;SDS011;5009;50.656;7.188;2023-07-31T04:23:48;3.70;;;3.40;;
9940;SDS011;5009;50.656;7.188;2023-07-31T04:26:14;4.72;;;3.85;;
9940;SDS011;5009;50.656;7.188;2023-07-31T04:28:39;5.20;;;3.70;;
9940;SDS011;5009;50.656;7.188;2023-07-31T04:31:05;4.72;;;3.53;;
9940;SDS011;5009;50.656;7.188;2023-07-31T04:33:30;6.43;;;4.40;;
9940;SDS011;5009;50.656;7.188;2023-07-31T04:35:57;7.13;;;3.85;;
9940;SDS011;5009;50.656;7.188;2023-07-31T04:38:22;7.32;;;3.80;;
9940;SDS011;5009;50.656;7.188;2023-07-31T04:40:48;6.00;;;4.20;;
9940;SDS011;5009;50.656;7.188;2023-07-31T04:43:13;6.38;;;3.92;;
9940;SDS011;5009;50.656;7.188;2023-07-31T04:45:39;6.60;;;4.10;;
9940;SDS011;5009;50.656;7.188;2023-07-31T04:48:07;5.75;;;4.40;;
9940;SDS011;5009;50.656;7.188;2023-07-31T04:50:32;5.55;;;4.18;;
9940;SDS011;5009;50.656;7.188;2023-07-31T04:52:58;4.95;;;4.45;;
9940;SDS011;5009;50.656;7.188;2023-07-31T04:55:23;5.30;;;3.88;;
9940;SDS011;5009;50.656;7.188;2023-07-31T04:57:49;5.30;;;4.10;;
9940;SDS011;5009;50.656;7.188;2023-07-31T05:00:14;4.35;;;3.90;;
9940;SDS011;5009;50.656;7.188;2023-07-31T05:02:40;4.45;;;4.05;;
9940;SDS011;5009;50.656;7.188;2023-07-31T05:05:06;4.50;;;3.90;;
9940;SDS011;5009;50.656;7.188;2023-07-31T05:07:32;4.40;;;4.00;;
9940;SDS011;5009;50.656;7.188;2023-07-31T05:09:57;4.78;;;4.20;;
9940;SDS011;5009;50.656;7.188;2023-07-31T05:12:23;4.72;;;4.03;;
9940;SDS011;5009;50.656;7.188;2023-07-31T05:14:48;4.45;;;3.67;;
9940;SDS011;5009;50.656;7.188;2023-07-31T05:17:14;5.00;;;3.67;;
9940;SDS011;5009;50.656;7.188;2023-07-31T05:19:39;4.97;;;4.22;;
9940;SDS011;5009;50.656;7.188;2023-07-31T05:22:05;6.07;;;4.00;;
9940;SDS011;5009;50.656;7.188;2023-07-31T05:24:31;5.50;;;3.55;;
9940;SDS011;5009;50.656;7.188;2023-07-31T05:26:56;5.10;;;3.78;;
9940;SDS011;5009;50.656;7.188;2023-07-31T05:29:22;4.93;;;3.78;;
9940;SDS011;5009;50.656;7.188;2023-07-31T05:31:47;4.28;;;3.88;;
9940;SDS011;5009;50.656;7.188;2023-07-31T05:34:13;4.05;;;3.65;;
9940;SDS011;5009;50.656;7.188;2023-07-31T05:36:38;5.30;;;4.07;;
9940;SDS011;5009;50.656;7.188;2023-07-31T05:39:04;4.57;;;3.65;;
9940;SDS011;5009;50.656;7.188;2023-07-31T05:41:33;4.03;;;3.70;;
9940;SDS011;5009;50.656;7.188;2023-07-31T05:43:59;6.97;;;3.78;;
9940;SDS011;5009;50.656;7.188;2023-07-31T05:46:25;4.15;;;3.60;;
9940;SDS011;5009;50.656;7.188;2023-07-31T05:48:50;4.63;;;4.22;;
9940;SDS011;5009;50.656;7.188;2023-07-31T05:51:16;5.15;;;3.97;;
9940;SDS011;5009;50.656;7.188;2023-07-31T05:53:41;4.80;;;4.30;;
9940;SDS011;5009;50.656;7.188;2023-07-31T05:56:07;4.72;;;3.70;;
9940;SDS011;5009;50.656;7.188;2023-07-31T05:58:32;6.55;;;3.83;;
9940;SDS011;5009;50.656;7.188;2023-07-31T06:00:58;11.35;;;4.20;;
9940;SDS011;5009;50.656;7.188;2023-07-31T06:03:23;6.68;;;4.07;;
9940;SDS011;5009;50.656;7.188;2023-07-31T06:05:49;4.90;;;4.30;;
9940;SDS011;5009;50.656;7.188;2023-07-31T06:08:15;5.40;;;3.80;;
9940;SDS011;5009;50.656;7.188;2023-07-31T06:10:40;5.20;;;3.83;;
9940;SDS011;5009;50.656;7.188;2023-07-31T06:13:06;5.72;;;4.32;;
9940;SDS011;5009;50.656;7.188;2023-07-31T06:15:31;6.65;;;4.18;;
9940;SDS011;5009;50.656;7.188;2023-07-31T06:17:57;5.75;;;4.30;;
9940;SDS011;5009;50.656;7.188;2023-07-31T06:20:22;4.50;;;3.88;;
9940;SDS011;5009;50.656;7.188;2023-07-31T06:22:48;4.35;;;3.90;;
9940;SDS011;5009;50.656;7.188;2023-07-31T06:25:14;8.38;;;4.13;;
9940;SDS011;5009;50.656;7.188;2023-07-31T06:27:39;9.00;;;4.07;;
9940;SDS011;5009;50.656;7.188;2023-07-31T06:30:05;8.68;;;4.30;;
9940;SDS011;5009;50.656;7.188;2023-07-31T06:32:31;9.25;;;4.97;;
9940;SDS011;5009;50.656;7.188;2023-07-31T06:34:57;6.63;;;4.25;;
9940;SDS011;5009;50.656;7.188;2023-07-31T06:37:22;5.38;;;4.00;;
9940;SDS011;5009;50.656;7.188;2023-07-31T06:39:48;4.75;;;3.70;;
9940;SDS011;5009;50.656;7.188;2023-07-31T06:42:14;5.95;;;4.60;;
9940;SDS011;5009;50.656;7.188;2023-07-31T06:44:39;10.15;;;4.72;;
9940;SDS011;5009;50.656;7.188;2023-07-31T06:47:05;5.53;;;3.85;;
9940;SDS011;5009;50.656;7.188;2023-07-31T06:49:30;4.80;;;4.03;;
9940;SDS011;5009;50.656;7.188;2023-07-31T06:51:56;4.28;;;3.72;;
9940;SDS011;5009;50.656;7.188;2023-07-31T06:54:21;5.20;;;3.80;;
9940;SDS011;5009;50.656;7.188;2023-07-31T06:56:47;9.98;;;4.60;;
9940;SDS011;5009;50.656;7.188;2023-07-31T06:59:12;5.50;;;4.05;;
9940;SDS011;5009;50.656;7.188;2023-07-31T07:01:38;4.07;;;3.58;;
9940;SDS011;5009;50.656;7.188;2023-07-31T07:04:03;4.82;;;3.88;;
9940;SDS011;5009;50.656;7.188;2023-07-31T07:06:29;4.68;;;3.92;;
9940;SDS011;5009;50.656;7.188;2023-07-31T07:08:55;5.13;;;4.03;;
9940;SDS011;5009;50.656;7.188;2023-07-31T07:11:20;3.55;;;3.30;;
9940;SDS011;5009;50.656;7.188;2023-07-31T07:13:46;5.55;;;3.88;;
9940;SDS011;5009;50.656;7.188;2023-07-31T07:16:11;5.80;;;4.38;;
9940;SDS011;5009;50.656;7.188;2023-07-31T07:18:37;5.90;;;4.10;;
9940;SDS011;5009;50.656;7.188;2023-07-31T07:21:03;4.88;;;4.28;;
9940;SDS011;5009;50.656;7.188;2023-07-31T07:23:28;5.20;;;4.10;;
9940;SDS011;5009;50.656;7.188;2023-07-31T07:25:54;4.68;;;4.13;;
9940;SDS011;5009;50.656;7.188;2023-07-31T07:28:19;5.75;;;4.07;;
9940;SDS011;5009;50.656;7.188;2023-07-31T07:30:45;6.07;;;4.40;;
9940;SDS011;5009;50.656;7.188;2023-07-31T07:33:17;5.03;;;4.40;;
9940;SDS011;5009;50.656;7.188;2023-07-31T07:35:43;6.70;;;4.28;;
9940;SDS011;5009;50.656;7.188;2023-07-31T07:38:08;6.20;;;4.03;;
9940;SDS011;5009;50.656;7.188;2023-07-31T07:40:38;6.03;;;4.18;;
9940;SDS011;5009;50.656;7.188;2023-07-31T07:43:06;6.28;;;4.60;;
9940;SDS011;5009;50.656;7.188;2023-07-31T07:45:32;6.30;;;4.13;;
9940;SDS011;5009;50.656;7.188;2023-07-31T07:47:57;5.50;;;4.38;;
9940;SDS011;5009;50.656;7.188;2023-07-31T07:50:24;5.50;;;4.60;;
9940;SDS011;5009;50.656;7.188;2023-07-31T07:52:49;5.72;;;4.68;;
9940;SDS011;5009;50.656;7.188;2023-07-31T07:55:15;5.30;;;4.45;;
9940;SDS011;5009;50.656;7.188;2023-07-31T07:57:40;5.15;;;4.50;;
9940;SDS011;5009;50.656;7.188;2023-07-31T08:00:06;5.63;;;4.30;;
9940;SDS011;5009;50.656;7.188;2023-07-31T08:02:32;6.97;;;4.45;;
9940;SDS011;5009;50.656;7.188;2023-07-31T08:04:58;7.10;;;4.95;;
9940;SDS011;5009;50.656;7.188;2023-07-31T08:07:23;5.65;;;4.25;;
9940;SDS011;5009;50.656;7.188;2023-07-31T08:09:49;6.53;;;4.45;;
9940;SDS011;5009;50.656;7.188;2023-07-31T08:12:15;5.95;;;4.57;;
9940;SDS011;5009;50.656;7.188;2023-07-31T08:14:40;5.43;;;4.13;;
9940;SDS011;5009;50.656;7.188;2023-07-31T08:17:06;7.72;;;5.38;;
9940;SDS011;5009;50.656;7.188;2023-07-31T08:19:31;6.25;;;5.07;;
9940;SDS011;5009;50.656;7.188;2023-07-31T08:21:57;7.45;;;5.35;;
9940;SDS011;5009;50.656;7.188;2023-07-31T08:24:22;5.65;;;4.47;;
9940;SDS011;5009;50.656;7.188;2023-07-31T08:26:48;5.55;;;4.47;;
9940;SDS011;5009;50.656;7.188;2023-07-31T08:29:13;5.85;;;4.60;;
9940;SDS011;5009;50.656;7.188;2023-07-31T08:31:39;5.95;;;4.22;;
9940;SDS011;5009;50.656;7.188;2023-07-31T08:34:05;7.70;;;4.22;;
9940;SDS011;5009;50.656;7.188;2023-07-31T08:36:30;9.88;;;4.70;;
9940;SDS011;5009;50.656;7.188;2023-07-31T08:38:56;6.13;;;4.75;;
9940;SDS011;5009;50.656;7.188;2023-07-31T08:41:21;7.88;;;4.53;;
9940;SDS011;5009;50.656;7.188;2023-07-31T08:43:47;6.30;;;5.30;;
9940;SDS011;5009;50.656;7.188;2023-07-31T08:46:15;5.65;;;4.28;;
9940;SDS011;5009;50.656;7.188;2023-07-31T08:48:44;7.45;;;4.70;;
9940;SDS011;5009;50.656;7.188;2023-07-31T08:51:10;7.05;;;5.13;;
9940;SDS011;5009;50.656;7.188;2023-07-31T08:53:36;5.68;;;4.95;;
9940;SDS011;5009;50.656;7.188;2023-07-31T08:56:01;5.65;;;4.47;;
9940;SDS011;5009;50.656;7.188;2023-07-31T08:58:30;5.57;;;4.82;;
9940;SDS011;5009;50.656;7.188;2023-07-31T09:00:57;6.13;;;4.82;;
9940;SDS011;5009;50.656;7.188;2023-07-31T09:03:25;8.18;;;4.88;;
9940;SDS011;5009;50.656;7.188;2023-07-31T09:05:51;5.80;;;4.65;;
9940;SDS011;5009;50.656;7.188;2023-07-31T09:08:18;5.82;;;4.25;;
9940;SDS011;5009;50.656;7.188;2023-07-31T09:10:45;4.65;;;4.10;;
9940;SDS011;5009;50.656;7.188;2023-07-31T09:13:12;6.22;;;4.40;;
9940;SDS011;5009;50.656;7.188;2023-07-31T09:15:42;5.78;;;4.00;;
9940;SDS011;5009;50.656;7.188;2023-07-31T09:18:09;4.90;;;4.40;;
9940;SDS011;5009;50.656;7.188;2023-07-31T09:20:35;5.45;;;4.32;;
9940;SDS011;5009;50.656;7.188;2023-07-31T09:23:12;8.02;;;4.53;;
9940;SDS011;5009;50.656;7.188;2023-07-31T09:25:40;4.95;;;4.35;;
9940;SDS011;5009;50.656;7.188;2023-07-31T09:28:10;5.95;;;4.15;;
9940;SDS011;5009;50.656;7.188;2023-07-31T09:30:49;8.30;;;4.75;;
9940;SDS011;5009;50.656;7.188;2023-07-31T09:33:16;4.63;;;4.00;;
9940;SDS011;5009;50.656;7.188;2023-07-31T09:35:42;5.05;;;4.57;;
9940;SDS011;5009;50.656;7.188;2023-07-31T09:38:12;6.80;;;4.32;;
9940;SDS011;5009;50.656;7.188;2023-07-31T09:40:40;5.05;;;4.38;;
9940;SDS011;5009;50.656;7.188;2023-07-31T09:43:10;7.18;;;4.57;;
9940;SDS011;5009;50.656;7.188;2023-07-31T09:45:38;7.78;;;3.97;;
9940;SDS011;5009;50.656;7.188;2023-07-31T09:48:14;5.45;;;4.47;;
9940;SDS011;5009;50.656;7.188;2023-07-31T09:50:44;6.28;;;4.57;;
9940;SDS011;5009;50.656;7.188;2023-07-31T09:53:11;6.28;;;5.15;;
9940;SDS011;5009;50.656;7.188;2023-07-31T09:55:37;6.32;;;4.93;;
9940;SDS011;5009;50.656;7.188;2023-07-31T09:58:04;4.88;;;4.38;;
9940;SDS011;5009;50.656;7.188;2023-07-31T10:00:31;5.28;;;4.18;;
9940;SDS011;5009;50.656;7.188;2023-07-31T10:03:01;4.53;;;3.75;;
9940;SDS011;5009;50.656;7.188;2023-07-31T10:05:31;4.57;;;3.67;;
9940;SDS011;5009;50.656;7.188;2023-07-31T10:08:00;4.82;;;3.70;;
9940;SDS011;5009;50.656;7.188;2023-07-31T10:10:26;5.45;;;3.35;;
9940;SDS011;5009;50.656;7.188;2023-07-31T10:12:53;4.97;;;3.67;;
9940;SDS011;5009;50.656;7.188;2023-07-31T10:15:19;5.22;;;3.83;;
9940;SDS011;5009;50.656;7.188;2023-07-31T10:17:48;3.38;;;3.08;;
9940;SDS011;5009;50.656;7.188;2023-07-31T10:20:15;3.42;;;3.13;;
9940;SDS011;5009;50.656;7.188;2023-07-31T10:22:41;5.78;;;3.53;;
9940;SDS011;5009;50.656;7.188;2023-07-31T10:25:08;5.45;;;3.58;;
9940;SDS011;5009;50.656;7.188;2023-07-31T10:27:43;4.38;;;3.38;;
9940;SDS011;5009;50.656;7.188;2023-07-31T10:30:12;7.22;;;4.10;;
9940;SDS011;5009;50.656;7.188;2023-07-31T10:32:41;4.50;;;3.42;;
9940;SDS011;5009;50.656;7.188;2023-07-31T10:35:08;5.70;;;3.42;;
9940;SDS011;5009;50.656;7.188;2023-07-31T10:37:38;4.15;;;2.95;;
9940;SDS011;5009;50.656;7.188;2023-07-31T10:42:35;5.15;;;2.70;;
9940;SDS011;5009;50.656;7.188;2023-07-31T10:45:08;4.88;;;2.95;;
9940;SDS011;5009;50.656;7.188;2023-07-31T10:47:45;5.03;;;2.97;;
9940;SDS011;5009;50.656;7.188;2023-07-31T10:50:21;4.82;;;2.70;;
9940;SDS011;5009;50.656;7.188;2023-07-31T10:52:52;3.30;;;3.00;;
9940;SDS011;5009;50.656;7.188;2023-07-31T10:55:26;3.08;;;2.70;;
9940;SDS011;5009;50.656;7.188;2023-07-31T10:57:53;4.07;;;2.80;;
9940;SDS011;5009;50.656;7.188;2023-07-31T11:00:26;3.13;;;2.72;;
9940;SDS011;5009;50.656;7.188;2023-07-31T11:05:59;2.83;;;2.63;;
9940;SDS011;5009;50.656;7.188;2023-07-31T11:08:25;5.70;;;2.72;;
9940;SDS011;5009;50.656;7.188;2023-07-31T11:13:30;2.85;;;2.35;;
9940;SDS011;5009;50.656;7.188;2023-07-31T11:15:57;2.83;;;2.42;;
9940;SDS011;5009;50.656;7.188;2023-07-31T11:18:23;2.80;;;2.60;;
9940;SDS011;5009;50.656;7.188;2023-07-31T11:20:50;2.95;;;2.55;;
9940;SDS011;5009;50.656;7.188;2023-07-31T11:23:16;2.50;;;2.30;;
9940;SDS011;5009;50.656;7.188;2023-07-31T11:25:43;4.65;;;2.40;;
9940;SDS011;5009;50.656;7.188;2023-07-31T11:30:35;2.88;;;2.30;;
9940;SDS011;5009;50.656;7.188;2023-07-31T11:33:02;2.60;;;2.40;;
9940;SDS011;5009;50.656;7.188;2023-07-31T11:35:29;3.00;;;2.45;;
9940;SDS011;5009;50.656;7.188;2023-07-31T11:37:58;3.00;;;2.47;;
9940;SDS011;5009;50.656;7.188;2023-07-31T11:40:24;3.05;;;2.63;;
9940;SDS011;5009;50.656;7.188;2023-07-31T11:42:57;6.68;;;2.35;;
9940;SDS011;5009;50.656;7.188;2023-07-31T11:45:26;2.45;;;2.20;;
9940;SDS011;5009;50.656;7.188;2023-07-31T11:47:56;2.67;;;2.30;;
9940;SDS011;5009;50.656;7.188;2023-07-31T11:50:22;3.15;;;2.40;;
9940;SDS011;5009;50.656;7.188;2023-07-31T11:53:04;2.80;;;2.60;;
9940;SDS011;5009;50.656;7.188;2023-07-31T11:55:33;2.60;;;2.40;;
9940;SDS011;5009;50.656;7.188;2023-07-31T11:57:59;2.85;;;2.33;;
9940;SDS011;5009;50.656;7.188;2023-07-31T12:00:25;2.50;;;2.30;;
9940;SDS011;5009;50.656;7.188;2023-07-31T12:02:52;2.80;;;2.22;;
9940;SDS011;5009;50.656;7.188;2023-07-31T12:05:18;2.95;;;2.13;;
9940;SDS011;5009;50.656;7.188;2023-07-31T12:07:46;1.98;;;1.88;;
9940;SDS011;5009;50.656;7.188;2023-07-31T12:10:25;2.08;;;1.98;;
9940;SDS011;5009;50.656;7.188;2023-07-31T12:13:11;2.70;;;2.17;;
9940;SDS011;5009;50.656;7.188;2023-07-31T12:15:45;2.60;;;2.30;;
9940;SDS011;5009;50.656;7.188;2023-07-31T12:18:14;2.95;;;2.75;;
9940;SDS011;5009;50.656;7.188;2023-07-31T12:20:45;4.20;;;2.90;;
9940;SDS011;5009;50.656;7.188;2023-07-31T12:23:16;3.55;;;3.30;;
9940;SDS011;5009;50.656;7.188;2023-07-31T12:28:40;3.88;;;3.55;;
9940;SDS011;5009;50.656;7.188;2023-07-31T12:31:17;4.07;;;3.53;;
9940;SDS011;5009;50.656;7.188;2023-07-31T12:33:45;5.43;;;3.45;;
9940;SDS011;5009;50.656;7.188;2023-07-31T12:36:20;5.32;;;4.05;;
9940;SDS011;5009;50.656;7.188;2023-07-31T12:38:48;4.28;;;3.80;;
9940;SDS011;5009;50.656;7.188;2023-07-31T12:41:15;4.55;;;4.15;;
9940;SDS011;5009;50.656;7.188;2023-07-31T12:43:41;4.20;;;3.65;;
9940;SDS011;5009;50.656;7.188;2023-07-31T12:46:08;4.30;;;3.90;;
9940;SDS011;5009;50.656;7.188;2023-07-31T12:48:34;5.35;;;4.18;;
9940;SDS011;5009;50.656;7.188;2023-07-31T12:51:01;4.68;;;4.13;;
9940;SDS011;5009;50.656;7.188;2023-07-31T12:53:27;4.75;;;3.83;;
9940;SDS011;5009;50.656;7.188;2023-07-31T12:55:53;5.78;;;4.78;;
9940;SDS011;5009;50.656;7.188;2023-07-31T12:58:19;4.15;;;3.85;;
9940;SDS011;5009;50.656;7.188;2023-07-31T13:00:44;4.78;;;4.07;;
9940;SDS011;5009;50.656;7.188;2023-07-31T13:03:10;4.18;;;3.83;;
9940;SDS011;5009;50.656;7.188;2023-07-31T13:05:35;6.93;;;5.25;;
9940;SDS011;5009;50.656;7.188;2023-07-31T13:08:01;4.38;;;4.07;;
9940;SDS011;5009;50.656;7.188;2023-07-31T13:10:27;5.75;;;4.47;;
9940;SDS011;5009;50.656;7.188;2023-07-31T13:12:53;4.13;;;3.72;;
9940;SDS011;5009;50.656;7.188;2023-07-31T13:15:19;4.70;;;4.10;;
9940;SDS011;5009;50.656;7.188;2023-07-31T13:17:45;4.18;;;3.80;;
9940;SDS011;5009;50.656;7.188;2023-07-31T13:20:11;4.38;;;3.85;;
9940;SDS011;5009;50.656;7.188;2023-07-31T13:22:36;4.60;;;4.10;;
9940;SDS011;5009;50.656;7.188;2023-07-31T13:25:02;3.85;;;3.55;;
9940;SDS011;5009;50.656;7.188;2023-07-31T13:27:28;3.53;;;3.22;;
9940;SDS011;5009;50.656;7.188;2023-07-31T13:29:53;3.83;;;3.53;;
9940;SDS011;5009;50.656;7.188;2023-07-31T13:32:19;8.65;;;3.80;;
9940;SDS011;5009;50.656;7.188;2023-07-31T13:34:46;3.38;;;3.17;;
9940;SDS011;5009;50.656;7.188;2023-07-31T13:37:12;3.25;;;2.92;;
9940;SDS011;5009;50.656;7.188;2023-07-31T13:39:38;2.95;;;2.75;;
9940;SDS011;5009;50.656;7.188;2023-07-31T13:42:04;4.70;;;2.60;;
9940;SDS011;5009;50.656;7.188;2023-07-31T13:44:37;4.72;;;3.00;;
9940;SDS011;5009;50.656;7.188;2023-07-31T13:47:03;3.17;;;2.88;;
9940;SDS011;5009;50.656;7.188;2023-07-31T13:49:29;3.65;;;2.45;;
9940;SDS011;5009;50.656;7.188;2023-07-31T13:51:55;3.15;;;2.70;;
9940;SDS011;5009;50.656;7.188;2023-07-31T13:54:21;2.60;;;2.40;;
9940;SDS011;5009;50.656;7.188;2023-07-31T13:56:48;2.50;;;2.40;;
9940;SDS011;5009;50.656;7.188;2023-07-31T13:59:13;2.83;;;2.63;;
9940;SDS011;5009;50.656;7.188;2023-07-31T14:01:41;3.65;;;2.90;;
9940;SDS011;5009;50.656;7.188;2023-07-31T14:04:06;3.30;;;2.90;;
9940;SDS011;5009;50.656;7.188;2023-07-31T14:06:32;3.03;;;2.80;;
9940;SDS011;5009;50.656;7.188;2023-07-31T14:08:57;2.70;;;2.50;;
9940;SDS011;5009;50.656;7.188;2023-07-31T14:11:23;2.78;;;2.58;;
9940;SDS011;5009;50.656;7.188;2023-07-31T14:13:49;5.07;;;2.63;;
9940;SDS011;5009;50.656;7.188;2023-07-31T14:16:15;3.70;;;2.38;;
9940;SDS011;5009;50.656;7.188;2023-07-31T14:18:42;3.47;;;2.53;;
9940;SDS011;5009;50.656;7.188;2023-07-31T14:21:08;2.70;;;2.50;;
9940;SDS011;5009;50.656;7.188;2023-07-31T14:23:33;2.55;;;2.40;;
9940;SDS011;5009;50.656;7.188;2023-07-31T14:25:59;2.63;;;2.42;;
9940;SDS011;5009;50.656;7.188;2023-07-31T14:28:24;3.80;;;2.40;;
9940;SDS011;5009;50.656;7.188;2023-07-31T14:30:50;2.65;;;2.45;;
9940;SDS011;5009;50.656;7.188;2023-07-31T14:33:16;2.72;;;2.53;;
9940;SDS011;5009;50.656;7.188;2023-07-31T14:35:41;2.83;;;2.63;;
9940;SDS011;5009;50.656;7.188;2023-07-31T14:38:07;5.93;;;2.50;;
9940;SDS011;5009;50.656;7.188;2023-07-31T14:40:32;2.78;;;2.55;;
9940;SDS011;5009;50.656;7.188;2023-07-31T14:42:58;2.55;;;2.17;;
9940;SDS011;5009;50.656;7.188;2023-07-31T14:45:23;2.80;;;2.58;;
9940;SDS011;5009;50.656;7.188;2023-07-31T14:47:49;2.45;;;2.35;;
9940;SDS011;5009;50.656;7.188;2023-07-31T14:50:15;2.38;;;2.28;;
9940;SDS011;5009;50.656;7.188;2023-07-31T14:52:41;2.28;;;2.17;;
9940;SDS011;5009;50.656;7.188;2023-07-31T14:55:06;2.20;;;2.10;;
9940;SDS011;5009;50.656;7.188;2023-07-31T14:57:33;2.88;;;2.58;;
9940;SDS011;5009;50.656;7.188;2023-07-31T14:59:59;3.03;;;2.83;;
9940;SDS011;5009;50.656;7.188;2023-07-31T15:02:25;2.60;;;2.40;;
9940;SDS011;5009;50.656;7.188;2023-07-31T15:04:51;2.50;;;2.22;;
9940;SDS011;5009;50.656;7.188;2023-07-31T15:07:16;4.35;;;2.67;;
9940;SDS011;5009;50.656;7.188;2023-07-31T15:09:42;2.78;;;2.58;;
9940;SDS011;5009;50.656;7.188;2023-07-31T15:12:07;2.80;;;2.60;;
9940;SDS011;5009;50.656;7.188;2023-07-31T15:14:33;2.78;;;2.58;;
9940;SDS011;5009;50.656;7.188;2023-07-31T15:16:59;2.80;;;2.60;;
9940;SDS011;5009;50.656;7.188;2023-07-31T15:19:25;3.10;;;2.90;;
9940;SDS011;5009;50.656;7.188;2023-07-31T15:21:50;2.92;;;2.63;;
9940;SDS011;5009;50.656;7.188;2023-07-31T15:24:16;2.60;;;2.45;;
9940;SDS011;5009;50.656;7.188;2023-07-31T15:26:42;2.28;;;2.17;;
9940;SDS011;5009;50.656;7.188;2023-07-31T15:29:07;4.05;;;2.60;;
9940;SDS011;5009;50.656;7.188;2023-07-31T15:31:40;4.32;;;2.90;;
9940;SDS011;5009;50.656;7.188;2023-07-31T15:34:06;4.25;;;2.58;;
9940;SDS011;5009;50.656;7.188;2023-07-31T15:36:32;2.90;;;2.70;;
9940;SDS011;5009;50.656;7.188;2023-07-31T15:38:58;2.80;;;2.60;;
9940;SDS011;5009;50.656;7.188;2023-07-31T15:41:23;3.10;;;2.88;;
9940;SDS011;5009;50.656;7.188;2023-07-31T15:43:50;2.83;;;2.63;;
9940;SDS011;5009;50.656;7.188;2023-07-31T15:46:16;3.55;;;2.70;;
9940;SDS011;5009;50.656;7.188;2023-07-31T15:48:42;2.92;;;2.70;;
9940;SDS011;5009;50.656;7.188;2023-07-31T15:51:07;3.58;;;2.97;;
9940;SDS011;5009;50.656;7.188;2023-07-31T15:53:33;4.15;;;3.53;;
9940;SDS011;5009;50.656;7.188;2023-07-31T15:55:59;3.53;;;3.22;;
9940;SDS011;5009;50.656;7.188;2023-07-31T15:58:24;3.28;;;2.97;;
9940;SDS011;5009;50.656;7.188;2023-07-31T16:00:50;3.63;;;3.33;;
9940;SDS011;5009;50.656;7.188;2023-07-31T16:03:15;3.80;;;3.47;;
9940;SDS011;5009;50.656;7.188;2023-07-31T16:05:41;3.85;;;3.45;;
9940;SDS011;5009;50.656;7.188;2023-07-31T16:08:07;4.35;;;3.88;;
9940;SDS011;5009;50.656;7.188;2023-07-31T16:10:33;6.13;;;4.10;;
9940;SDS011;5009;50.656;7.188;2023-07-31T16:12:58;4.05;;;3.65;;
9940;SDS011;5009;50.656;7.188;2023-07-31T16:15:24;5.15;;;3.72;;
9940;SDS011;5009;50.656;7.188;2023-07-31T16:17:49;5.18;;;4.00;;
9940;SDS011;5009;50.656;7.188;2023-07-31T16:20:15;4.72;;;3.60;;
9940;SDS011;5009;50.656;7.188;2023-07-31T16:22:41;4.60;;;4.10;;
9940;SDS011;5009;50.656;7.188;2023-07-31T16:25:08;4.22;;;3.83;;
9940;SDS011;5009;50.656;7.188;2023-07-31T16:27:35;4.63;;;4.05;;
9940;SDS011;5009;50.656;7.188;2023-07-31T16:30:01;7.10;;;4.30;;
9940;SDS011;5009;50.656;7.188;2023-07-31T16:32:27;4.45;;;4.03;;
9940;SDS011;5009;50.656;7.188;2023-07-31T16:34:52;5.88;;;4.32;;
9940;SDS011;5009;50.656;7.188;2023-07-31T16:37:18;6.00;;;4.38;;
9940;SDS011;5009;50.656;7.188;2023-07-31T16:39:44;4.57;;;4.10;;
9940;SDS011;5009;50.656;7.188;2023-07-31T16:42:12;6.20;;;4.63;;
9940;SDS011;5009;50.656;7.188;2023-07-31T16:44:38;5.07;;;3.85;;
9940;SDS011;5009;50.656;7.188;2023-07-31T16:47:04;6.90;;;3.88;;
9940;SDS011;5009;50.656;7.188;2023-07-31T16:49:29;5.50;;;4.28;;
9940;SDS011;5009;50.656;7.188;2023-07-31T16:51:55;4.93;;;3.88;;
9940;SDS011;5009;50.656;7.188;2023-07-31T16:54:20;4.30;;;3.90;;
9940;SDS011;5009;50.656;7.188;2023-07-31T16:56:46;4.15;;;3.83;;
9940;SDS011;5009;50.656;7.188;2023-07-31T16:59:13;5.95;;;3.63;;
9940;SDS011;5009;50.656;7.188;2023-07-31T17:01:40;3.67;;;3.38;;
9940;SDS011;5009;50.656;7.188;2023-07-31T17:04:05;4.95;;;3.50;;
9940;SDS011;5009;50.656;7.188;2023-07-31T17:06:31;4.82;;;4.10;;
9940;SDS011;5009;50.656;7.188;2023-07-31T17:08:57;4.03;;;3.63;;
9940;SDS011;5009;50.656;7.188;2023-07-31T17:11:22;4.78;;;3.85;;
9940;SDS011;5009;50.656;7.188;2023-07-31T17:13:48;3.58;;;3.28;;
9940;SDS011;5009;50.656;7.188;2023-07-31T17:16:13;4.00;;;3.60;;
9940;SDS011;5009;50.656;7.188;2023-07-31T17:18:39;6.03;;;3.67;;
9940;SDS011;5009;50.656;7.188;2023-07-31T17:21:05;5.22;;;3.75;;
9940;SDS011;5009;50.656;7.188;2023-07-31T17:23:30;4.18;;;3.55;;
9940;SDS011;5009;50.656;7.188;2023-07-31T17:25:56;4.13;;;3.67;;
9940;SDS011;5009;50.656;7.188;2023-07-31T17:28:21;4.25;;;3.67;;
9940;SDS011;5009;50.656;7.188;2023-07-31T17:30:47;4.97;;;3.85;;
9940;SDS011;5009;50.656;7.188;2023-07-31T17:33:13;4.03;;;3.63;;
9940;SDS011;5009;50.656;7.188;2023-07-31T17:35:39;4.07;;;3.42;;
9940;SDS011;5009;50.656;7.188;2023-07-31T17:38:05;3.95;;;3.60;;
9940;SDS011;5009;50.656;7.188;2023-07-31T17:40:31;5.00;;;3.72;;
9940;SDS011;5009;50.656;7.188;2023-07-31T17:42:57;4.28;;;3.20;;
9940;SDS011;5009;50.656;7.188;2023-07-31T17:45:22;3.78;;;3.38;;
9940;SDS011;5009;50.656;7.188;2023-07-31T17:47:48;4.07;;;3.33;;
9940;SDS011;5009;50.656;7.188;2023-07-31T17:50:13;3.78;;;3.00;;
9940;SDS011;5009;50.656;7.188;2023-07-31T17:52:39;3.17;;;2.88;;
9940;SDS011;5009;50.656;7.188;2023-07-31T17:55:06;3.75;;;3.33;;
9940;SDS011;5009;50.656;7.188;2023-07-31T17:57:32;4.20;;;3.42;;
9940;SDS011;5009;50.656;7.188;2023-07-31T17:59:58;3.58;;;3.22;;
9940;SDS011;5009;50.656;7.188;2023-07-31T18:02:23;3.85;;;3.28;;
9940;SDS011;5009;50.656;7.188;2023-07-31T18:04:49;3.47;;;3.10;;
9940;SDS011;5009;50.656;7.188;2023-07-31T18:07:15;3.47;;;2.78;;
9940;SDS011;5009;50.656;7.188;2023-07-31T18:09:40;3.63;;;2.80;;
9940;SDS011;5009;50.656;7.188;2023-07-31T18:12:07;3.15;;;2.40;;
9940;SDS011;5009;50.656;7.188;2023-07-31T18:14:33;2.75;;;2.55;;
9940;SDS011;5009;50.656;7.188;2023-07-31T18:17:01;2.97;;;2.55;;
9940;SDS011;5009;50.656;7.188;2023-07-31T18:19:28;2.33;;;2.22;;
9940;SDS011;5009;50.656;7.188;2023-07-31T18:21:54;2.58;;;2.28;;
9940;SDS011;5009;50.656;7.188;2023-07-31T18:24:19;2.30;;;2.20;;
9940;SDS011;5009;50.656;7.188;2023-07-31T18:26:45;2.17;;;2.00;;
9940;SDS011;5009;50.656;7.188;2023-07-31T18:29:10;2.63;;;2.20;;
9940;SDS011;5009;50.656;7.188;2023-07-31T18:31:36;4.90;;;2.50;;
9940;SDS011;5009;50.656;7.188;2023-07-31T18:34:01;2.08;;;1.88;;
9940;SDS011;5009;50.656;7.188;2023-07-31T18:36:27;1.83;;;1.73;;
9940;SDS011;5009;50.656;7.188;2023-07-31T18:38:53;2.50;;;2.30;;
9940;SDS011;5009;50.656;7.188;2023-07-31T18:41:18;3.03;;;2.03;;
9940;SDS011;5009;50.656;7.188;2023-07-31T18:43:44;2.47;;;2.13;;
9940;SDS011;5009;50.656;7.188;2023-07-31T18:46:10;2.10;;;2.00;;
9940;SDS011;5009;50.656;7.188;2023-07-31T18:48:37;3.75;;;2.35;;
9940;SDS011;5009;50.656;7.188;2023-07-31T18:51:03;2.92;;;2.13;;
9940;SDS011;5009;50.656;7.188;2023-07-31T18:53:28;2.60;;;2.40;;
9940;SDS011;5009;50.656;7.188;2023-07-31T18:55:54;2.70;;;2.38;;
9940;SDS011;5009;50.656;7.188;2023-07-31T18:58:20;2.05;;;1.95;;
9940;SDS011;5009;50.656;7.188;2023-07-31T19:00:46;2.50;;;2.30;;
9940;SDS011;5009;50.656;7.188;2023-07-31T19:03:11;2.72;;;2.53;;
9940;SDS011;5009;50.656;7.188;2023-07-31T19:05:40;2.50;;;2.30;;
9940;SDS011;5009;50.656;7.188;2023-07-31T19:08:06;5.65;;;2.25;;
9940;SDS011;5009;50.656;7.188;2023-07-31T19:10:35;3.05;;;2.85;;
9940;SDS011;5009;50.656;7.188;2023-07-31T19:13:01;2.33;;;2.08;;
9940;SDS011;5009;50.656;7.188;2023-07-31T19:15:27;3.05;;;2.30;;
9940;SDS011;5009;50.656;7.188;2023-07-31T19:17:52;2.50;;;2.30;;
9940;SDS011;5009;50.656;7.188;2023-07-31T19:20:18;3.80;;;2.38;;
9940;SDS011;5009;50.656;7.188;2023-07-31T19:22:43;2.50;;;2.40;;
9940;SDS011;5009;50.656;7.188;2023-07-31T19:25:09;2.40;;;2.20;;